sensor_id;sensor_type;location;lat;lon;timestamp;P1;durP1;ratioP1;P2;durP2;ratioP2
13263;SDS011;6700;51.988;7.646;2023-02-23T00:01:38;61.07;;;46.87;;
13263;SDS011;6700;51.988;7.646;2023-02-23T00:04:05;57.77;;;44.93;;
13263;SDS011;6700;51.988;7.646;2023-02-23T00:06:33;56.30;;;44.23;;
13263;SDS011;6700;51.988;7.646;2023-02-23T00:09:01;61.27;;;45.80;;
13263;SDS011;6700;51.988;7.646;2023-02-23T00:11:32;60.43;;;44.07;;
13263;SDS011;6700;51.988;7.646;2023-02-23T00:14:00;63.57;;;47.10;;
13263;SDS011;6700;51.988;7.646;2023-02-23T00:16:28;57.30;;;44.73;;
13263;SDS011;6700;51.988;7.646;2023-02-23T00:18:56;64.43;;;47.60;;
13263;SDS011;6700;51.988;7.646;2023-02-23T00:21:26;61.20;;;45.73;;
13263;SDS011;6700;51.988;7.646;2023-02-23T00:26:31;60.53;;;45.70;;
13263;SDS011;6700;51.988;7.646;2023-02-23T00:29:04;63.80;;;48.40;;
13263;SDS011;6700;51.988;7.646;2023-02-23T00:31:32;60.97;;;46.77;;
13263;SDS011;6700;51.988;7.646;2023-02-23T00:34:00;61.63;;;46.50;;
13263;SDS011;6700;51.988;7.646;2023-02-23T00:36:29;56.83;;;46.20;;
13263;SDS011;6700;51.988;7.646;2023-02-23T00:38:57;52.87;;;44.50;;
13263;SDS011;6700;51.988;7.646;2023-02-23T00:41:26;59.23;;;47.83;;
13263;SDS011;6700;51.988;7.646;2023-02-23T00:43:57;60.57;;;48.17;;
13263;SDS011;6700;51.988;7.646;2023-02-23T00:46:26;65.97;;;49.17;;
13263;SDS011;6700;51.988;7.646;2023-02-23T00:48:57;72.07;;;48.70;;
13263;SDS011;6700;51.988;7.646;2023-02-23T00:51:26;63.37;;;46.93;;
13263;SDS011;6700;51.988;7.646;2023-02-23T00:53:56;63.43;;;45.63;;
13263;SDS011;6700;51.988;7.646;2023-02-23T00:56:24;63.40;;;47.10;;
13263;SDS011;6700;51.988;7.646;2023-02-23T00:58:52;67.43;;;48.37;;
13263;SDS011;6700;51.988;7.646;2023-02-23T01:01:20;58.73;;;45.07;;
13263;SDS011;6700;51.988;7.646;2023-02-23T01:03:47;63.50;;;48.03;;
13263;SDS011;6700;51.988;7.646;2023-02-23T01:06:15;62.83;;;46.83;;
13263;SDS011;6700;51.988;7.646;2023-02-23T01:08:44;61.83;;;47.03;;
13263;SDS011;6700;51.988;7.646;2023-02-23T01:11:12;71.07;;;48.83;;
13263;SDS011;6700;51.988;7.646;2023-02-23T01:13:41;66.07;;;46.07;;
13263;SDS011;6700;51.988;7.646;2023-02-23T01:16:13;57.20;;;44.60;;
13263;SDS011;6700;51.988;7.646;2023-02-23T01:18:41;58.77;;;47.57;;
13263;SDS011;6700;51.988;7.646;2023-02-23T01:21:15;70.27;;;50.87;;
13263;SDS011;6700;51.988;7.646;2023-02-23T01:23:43;64.40;;;49.03;;
13263;SDS011;6700;51.988;7.646;2023-02-23T01:26:17;68.37;;;51.17;;
13263;SDS011;6700;51.988;7.646;2023-02-23T01:28:54;62.63;;;46.93;;
13263;SDS011;6700;51.988;7.646;2023-02-23T01:31:22;62.07;;;47.00;;
13263;SDS011;6700;51.988;7.646;2023-02-23T01:33:53;62.63;;;47.47;;
13263;SDS011;6700;51.988;7.646;2023-02-23T01:36:22;63.43;;;47.77;;
13263;SDS011;6700;51.988;7.646;2023-02-23T01:38:51;64.83;;;48.83;;
13263;SDS011;6700;51.988;7.646;2023-02-23T01:41:22;68.70;;;49.73;;
13263;SDS011;6700;51.988;7.646;2023-02-23T01:43:56;67.40;;;49.83;;
13263;SDS011;6700;51.988;7.646;2023-02-23T01:46:23;71.97;;;50.77;;
13263;SDS011;6700;51.988;7.646;2023-02-23T01:48:51;64.97;;;48.83;;
13263;SDS011;6700;51.988;7.646;2023-02-23T01:51:22;67.23;;;49.37;;
13263;SDS011;6700;51.988;7.646;2023-02-23T01:53:57;62.33;;;48.03;;
13263;SDS011;6700;51.988;7.646;2023-02-23T01:56:30;68.47;;;48.33;;
13263;SDS011;6700;51.988;7.646;2023-02-23T01:58:59;64.57;;;46.37;;
13263;SDS011;6700;51.988;7.646;2023-02-23T02:01:29;68.90;;;51.40;;
13263;SDS011;6700;51.988;7.646;2023-02-23T02:03:57;72.63;;;51.03;;
13263;SDS011;6700;51.988;7.646;2023-02-23T02:06:30;70.37;;;49.47;;
13263;SDS011;6700;51.988;7.646;2023-02-23T02:08:59;71.03;;;51.13;;
13263;SDS011;6700;51.988;7.646;2023-02-23T02:11:32;69.33;;;52.60;;
13263;SDS011;6700;51.988;7.646;2023-02-23T02:14:08;69.83;;;49.90;;
13263;SDS011;6700;51.988;7.646;2023-02-23T02:24:30;69.23;;;49.83;;
13263;SDS011;6700;51.988;7.646;2023-02-23T02:40:26;77.13;;;54.40;;
13263;SDS011;6700;51.988;7.646;2023-02-23T02:42:58;79.97;;;55.37;;
13263;SDS011;6700;51.988;7.646;2023-02-23T02:50:48;79.43;;;52.23;;
13263;SDS011;6700;51.988;7.646;2023-02-23T02:53:20;80.03;;;55.00;;
13263;SDS011;6700;51.988;7.646;2023-02-23T02:55:48;80.37;;;54.93;;
13263;SDS011;6700;51.988;7.646;2023-02-23T02:58:17;77.57;;;55.20;;
13263;SDS011;6700;51.988;7.646;2023-02-23T03:00:47;87.83;;;55.70;;
13263;SDS011;6700;51.988;7.646;2023-02-23T03:03:39;83.37;;;56.33;;
13263;SDS011;6700;51.988;7.646;2023-02-23T03:06:29;82.97;;;53.67;;
13263;SDS011;6700;51.988;7.646;2023-02-23T03:09:24;79.03;;;55.17;;
13263;SDS011;6700;51.988;7.646;2023-02-23T03:12:19;82.60;;;53.93;;
13263;SDS011;6700;51.988;7.646;2023-02-23T03:17:56;84.53;;;53.63;;
13263;SDS011;6700;51.988;7.646;2023-02-23T03:20:46;87.17;;;59.23;;
13263;SDS011;6700;51.988;7.646;2023-02-23T03:23:52;84.40;;;57.07;;
13263;SDS011;6700;51.988;7.646;2023-02-23T03:29:31;83.57;;;58.20;;
13263;SDS011;6700;51.988;7.646;2023-02-23T03:32:34;80.23;;;58.27;;
13263;SDS011;6700;51.988;7.646;2023-02-23T03:35:24;86.50;;;57.37;;
13263;SDS011;6700;51.988;7.646;2023-02-23T03:38:24;82.13;;;59.67;;
13263;SDS011;6700;51.988;7.646;2023-02-23T03:41:14;85.67;;;57.97;;
13263;SDS011;6700;51.988;7.646;2023-02-23T03:44:04;83.07;;;57.27;;
13263;SDS011;6700;51.988;7.646;2023-02-23T03:46:52;84.57;;;57.73;;
13263;SDS011;6700;51.988;7.646;2023-02-23T03:49:38;82.60;;;57.57;;
13263;SDS011;6700;51.988;7.646;2023-02-23T03:52:25;86.00;;;59.20;;
13263;SDS011;6700;51.988;7.646;2023-02-23T03:55:18;93.33;;;60.10;;
13263;SDS011;6700;51.988;7.646;2023-02-23T03:58:05;93.27;;;59.80;;
13263;SDS011;6700;51.988;7.646;2023-02-23T04:00:52;96.87;;;59.27;;
13263;SDS011;6700;51.988;7.646;2023-02-23T04:03:40;90.50;;;58.63;;
13263;SDS011;6700;51.988;7.646;2023-02-23T04:06:27;103.37;;;61.30;;
13263;SDS011;6700;51.988;7.646;2023-02-23T04:09:15;98.47;;;62.57;;
13263;SDS011;6700;51.988;7.646;2023-02-23T04:15:10;101.97;;;62.67;;
13263;SDS011;6700;51.988;7.646;2023-02-23T04:17:38;108.80;;;64.30;;
13263;SDS011;6700;51.988;7.646;2023-02-23T04:20:06;109.53;;;62.97;;
13263;SDS011;6700;51.988;7.646;2023-02-23T04:22:36;101.67;;;63.53;;
13263;SDS011;6700;51.988;7.646;2023-02-23T04:25:03;103.40;;;60.90;;
13263;SDS011;6700;51.988;7.646;2023-02-23T04:27:31;108.70;;;63.33;;
13263;SDS011;6700;51.988;7.646;2023-02-23T04:29:58;93.97;;;61.43;;
13263;SDS011;6700;51.988;7.646;2023-02-23T04:32:25;99.93;;;61.00;;
13263;SDS011;6700;51.988;7.646;2023-02-23T04:34:52;102.70;;;63.43;;
13263;SDS011;6700;51.988;7.646;2023-02-23T04:37:20;102.57;;;59.73;;
13263;SDS011;6700;51.988;7.646;2023-02-23T04:39:47;102.10;;;59.67;;
13263;SDS011;6700;51.988;7.646;2023-02-23T04:42:16;103.50;;;61.40;;
13263;SDS011;6700;51.988;7.646;2023-02-23T04:44:43;98.87;;;61.73;;
13263;SDS011;6700;51.988;7.646;2023-02-23T04:47:11;103.93;;;60.73;;
13263;SDS011;6700;51.988;7.646;2023-02-23T04:49:38;122.80;;;68.80;;
13263;SDS011;6700;51.988;7.646;2023-02-23T04:52:05;110.33;;;64.83;;
13263;SDS011;6700;51.988;7.646;2023-02-23T04:54:32;113.60;;;65.10;;
13263;SDS011;6700;51.988;7.646;2023-02-23T04:56:59;111.77;;;62.40;;
13263;SDS011;6700;51.988;7.646;2023-02-23T04:59:26;103.83;;;62.03;;
13263;SDS011;6700;51.988;7.646;2023-02-23T05:01:54;99.00;;;59.43;;
13263;SDS011;6700;51.988;7.646;2023-02-23T05:04:21;98.57;;;60.43;;
13263;SDS011;6700;51.988;7.646;2023-02-23T05:06:48;112.10;;;65.03;;
13263;SDS011;6700;51.988;7.646;2023-02-23T05:09:15;109.37;;;63.43;;
13263;SDS011;6700;51.988;7.646;2023-02-23T05:11:42;109.13;;;65.67;;
13263;SDS011;6700;51.988;7.646;2023-02-23T05:14:09;111.37;;;64.17;;
13263;SDS011;6700;51.988;7.646;2023-02-23T05:16:38;109.40;;;65.03;;
13263;SDS011;6700;51.988;7.646;2023-02-23T05:19:05;108.17;;;63.10;;
13263;SDS011;6700;51.988;7.646;2023-02-23T05:21:32;114.07;;;63.97;;
13263;SDS011;6700;51.988;7.646;2023-02-23T05:23:59;114.43;;;63.80;;
13263;SDS011;6700;51.988;7.646;2023-02-23T05:26:27;122.53;;;65.67;;
13263;SDS011;6700;51.988;7.646;2023-02-23T05:28:54;115.23;;;63.87;;
13263;SDS011;6700;51.988;7.646;2023-02-23T05:31:22;102.47;;;61.97;;
13263;SDS011;6700;51.988;7.646;2023-02-23T05:33:50;110.53;;;64.23;;
13263;SDS011;6700;51.988;7.646;2023-02-23T05:36:17;108.90;;;62.60;;
13263;SDS011;6700;51.988;7.646;2023-02-23T05:38:45;105.60;;;63.27;;
13263;SDS011;6700;51.988;7.646;2023-02-23T05:41:13;118.17;;;66.30;;
13263;SDS011;6700;51.988;7.646;2023-02-23T05:43:40;110.23;;;65.30;;
13263;SDS011;6700;51.988;7.646;2023-02-23T05:46:14;112.37;;;64.33;;
13263;SDS011;6700;51.988;7.646;2023-02-23T05:48:42;115.83;;;65.73;;
13263;SDS011;6700;51.988;7.646;2023-02-23T05:51:10;111.93;;;63.63;;
13263;SDS011;6700;51.988;7.646;2023-02-23T05:53:37;111.67;;;64.87;;
13263;SDS011;6700;51.988;7.646;2023-02-23T05:56:05;126.23;;;66.13;;
13263;SDS011;6700;51.988;7.646;2023-02-23T05:58:33;114.23;;;66.63;;
13263;SDS011;6700;51.988;7.646;2023-02-23T06:01:00;119.17;;;66.67;;
13263;SDS011;6700;51.988;7.646;2023-02-23T06:03:27;114.30;;;66.27;;
13263;SDS011;6700;51.988;7.646;2023-02-23T06:05:55;121.10;;;68.80;;
13263;SDS011;6700;51.988;7.646;2023-02-23T06:08:23;122.63;;;67.27;;
13263;SDS011;6700;51.988;7.646;2023-02-23T06:10:51;114.03;;;67.03;;
13263;SDS011;6700;51.988;7.646;2023-02-23T06:13:18;114.70;;;65.43;;
13263;SDS011;6700;51.988;7.646;2023-02-23T06:15:46;111.87;;;66.93;;
13263;SDS011;6700;51.988;7.646;2023-02-23T06:18:14;124.93;;;68.10;;
13263;SDS011;6700;51.988;7.646;2023-02-23T06:20:44;127.13;;;65.37;;
13263;SDS011;6700;51.988;7.646;2023-02-23T06:23:12;111.73;;;66.43;;
13263;SDS011;6700;51.988;7.646;2023-02-23T06:25:41;111.57;;;63.30;;
13263;SDS011;6700;51.988;7.646;2023-02-23T06:28:08;114.07;;;65.50;;
13263;SDS011;6700;51.988;7.646;2023-02-23T06:30:36;111.87;;;63.87;;
13263;SDS011;6700;51.988;7.646;2023-02-23T06:33:04;115.97;;;66.30;;
13263;SDS011;6700;51.988;7.646;2023-02-23T06:35:32;115.53;;;67.57;;
13263;SDS011;6700;51.988;7.646;2023-02-23T06:38:00;120.00;;;67.03;;
13263;SDS011;6700;51.988;7.646;2023-02-23T06:40:27;121.57;;;67.23;;
13263;SDS011;6700;51.988;7.646;2023-02-23T06:42:55;119.63;;;67.50;;
13263;SDS011;6700;51.988;7.646;2023-02-23T06:45:23;122.70;;;69.83;;
13263;SDS011;6700;51.988;7.646;2023-02-23T06:47:50;122.20;;;67.10;;
13263;SDS011;6700;51.988;7.646;2023-02-23T06:50:18;121.13;;;67.43;;
13263;SDS011;6700;51.988;7.646;2023-02-23T06:52:46;119.30;;;64.00;;
13263;SDS011;6700;51.988;7.646;2023-02-23T06:55:14;118.93;;;65.70;;
13263;SDS011;6700;51.988;7.646;2023-02-23T06:57:42;113.80;;;63.70;;
13263;SDS011;6700;51.988;7.646;2023-02-23T07:00:10;118.20;;;65.27;;
13263;SDS011;6700;51.988;7.646;2023-02-23T07:02:40;126.43;;;64.87;;
13263;SDS011;6700;51.988;7.646;2023-02-23T07:05:07;112.97;;;62.73;;
13263;SDS011;6700;51.988;7.646;2023-02-23T07:07:35;114.63;;;64.33;;
13263;SDS011;6700;51.988;7.646;2023-02-23T07:10:02;111.20;;;64.13;;
13263;SDS011;6700;51.988;7.646;2023-02-23T07:12:30;109.63;;;63.50;;
13263;SDS011;6700;51.988;7.646;2023-02-23T07:14:57;119.00;;;65.83;;
13263;SDS011;6700;51.988;7.646;2023-02-23T07:17:24;111.73;;;64.23;;
13263;SDS011;6700;51.988;7.646;2023-02-23T07:19:51;108.73;;;64.47;;
13263;SDS011;6700;51.988;7.646;2023-02-23T07:22:18;121.90;;;67.03;;
13263;SDS011;6700;51.988;7.646;2023-02-23T07:24:47;118.37;;;64.77;;
13263;SDS011;6700;51.988;7.646;2023-02-23T07:27:14;116.43;;;66.40;;
13263;SDS011;6700;51.988;7.646;2023-02-23T07:29:41;115.07;;;66.57;;
13263;SDS011;6700;51.988;7.646;2023-02-23T07:32:08;115.37;;;65.97;;
13263;SDS011;6700;51.988;7.646;2023-02-23T07:34:36;120.20;;;65.30;;
13263;SDS011;6700;51.988;7.646;2023-02-23T07:37:03;116.37;;;63.70;;
13263;SDS011;6700;51.988;7.646;2023-02-23T07:39:30;112.93;;;66.53;;
13263;SDS011;6700;51.988;7.646;2023-02-23T07:41:57;116.90;;;64.27;;
13263;SDS011;6700;51.988;7.646;2023-02-23T07:44:24;109.23;;;62.87;;
13263;SDS011;6700;51.988;7.646;2023-02-23T07:46:51;119.67;;;67.20;;
13263;SDS011;6700;51.988;7.646;2023-02-23T07:49:18;119.40;;;68.00;;
13263;SDS011;6700;51.988;7.646;2023-02-23T07:51:46;120.40;;;66.20;;
13263;SDS011;6700;51.988;7.646;2023-02-23T07:54:13;110.80;;;63.17;;
13263;SDS011;6700;51.988;7.646;2023-02-23T07:56:41;111.93;;;63.77;;
13263;SDS011;6700;51.988;7.646;2023-02-23T07:59:09;113.80;;;64.60;;
13263;SDS011;6700;51.988;7.646;2023-02-23T08:01:36;109.90;;;64.43;;
13263;SDS011;6700;51.988;7.646;2023-02-23T08:04:03;111.53;;;65.17;;
13263;SDS011;6700;51.988;7.646;2023-02-23T08:06:31;104.20;;;63.57;;
13263;SDS011;6700;51.988;7.646;2023-02-23T08:08:58;117.67;;;65.33;;
13263;SDS011;6700;51.988;7.646;2023-02-23T08:11:26;104.73;;;63.30;;
13263;SDS011;6700;51.988;7.646;2023-02-23T08:13:56;99.17;;;60.13;;
13263;SDS011;6700;51.988;7.646;2023-02-23T08:16:29;112.00;;;63.23;;
13263;SDS011;6700;51.988;7.646;2023-02-23T08:18:56;113.03;;;64.80;;
13263;SDS011;6700;51.988;7.646;2023-02-23T08:21:23;104.13;;;62.13;;
13263;SDS011;6700;51.988;7.646;2023-02-23T08:23:51;99.97;;;61.77;;
13263;SDS011;6700;51.988;7.646;2023-02-23T08:26:18;97.23;;;59.53;;
13263;SDS011;6700;51.988;7.646;2023-02-23T08:28:45;99.40;;;59.90;;
13263;SDS011;6700;51.988;7.646;2023-02-23T08:31:12;102.33;;;57.97;;
13263;SDS011;6700;51.988;7.646;2023-02-23T08:33:41;96.40;;;58.00;;
13263;SDS011;6700;51.988;7.646;2023-02-23T08:36:08;99.23;;;59.73;;
13263;SDS011;6700;51.988;7.646;2023-02-23T08:38:35;97.13;;;56.13;;
13263;SDS011;6700;51.988;7.646;2023-02-23T08:41:03;91.60;;;58.40;;
13263;SDS011;6700;51.988;7.646;2023-02-23T08:43:30;96.03;;;57.87;;
13263;SDS011;6700;51.988;7.646;2023-02-23T08:45:57;98.33;;;58.90;;
13263;SDS011;6700;51.988;7.646;2023-02-23T08:48:24;101.37;;;59.50;;
13263;SDS011;6700;51.988;7.646;2023-02-23T08:50:55;106.67;;;61.33;;
13263;SDS011;6700;51.988;7.646;2023-02-23T08:53:23;100.87;;;59.33;;
13263;SDS011;6700;51.988;7.646;2023-02-23T08:56:00;96.43;;;58.77;;
13263;SDS011;6700;51.988;7.646;2023-02-23T08:58:28;98.87;;;61.63;;
13263;SDS011;6700;51.988;7.646;2023-02-23T09:00:57;107.27;;;62.03;;
13263;SDS011;6700;51.988;7.646;2023-02-23T09:03:25;104.03;;;60.77;;
13263;SDS011;6700;51.988;7.646;2023-02-23T09:05:54;110.17;;;66.83;;
13263;SDS011;6700;51.988;7.646;2023-02-23T09:08:21;102.87;;;60.23;;
13263;SDS011;6700;51.988;7.646;2023-02-23T09:10:51;96.73;;;56.57;;
13263;SDS011;6700;51.988;7.646;2023-02-23T09:13:18;104.00;;;59.63;;
13263;SDS011;6700;51.988;7.646;2023-02-23T09:15:45;96.37;;;58.60;;
13263;SDS011;6700;51.988;7.646;2023-02-23T09:18:13;98.20;;;59.17;;
13263;SDS011;6700;51.988;7.646;2023-02-23T09:20:41;104.07;;;58.37;;
13263;SDS011;6700;51.988;7.646;2023-02-23T09:23:11;97.83;;;59.00;;
13263;SDS011;6700;51.988;7.646;2023-02-23T09:25:41;97.27;;;60.90;;
13263;SDS011;6700;51.988;7.646;2023-02-23T09:28:16;98.97;;;62.00;;
13263;SDS011;6700;51.988;7.646;2023-02-23T09:30:44;97.03;;;57.90;;
13263;SDS011;6700;51.988;7.646;2023-02-23T09:33:13;92.50;;;57.83;;
13263;SDS011;6700;51.988;7.646;2023-02-23T09:35:42;92.30;;;55.40;;
13263;SDS011;6700;51.988;7.646;2023-02-23T09:38:09;91.90;;;55.07;;
13263;SDS011;6700;51.988;7.646;2023-02-23T09:40:46;87.00;;;54.70;;
13263;SDS011;6700;51.988;7.646;2023-02-23T09:48:29;81.70;;;52.97;;
13263;SDS011;6700;51.988;7.646;2023-02-23T09:50:56;79.53;;;51.13;;
13263;SDS011;6700;51.988;7.646;2023-02-23T09:53:34;80.50;;;51.63;;
13263;SDS011;6700;51.988;7.646;2023-02-23T09:56:11;88.47;;;58.10;;
13263;SDS011;6700;51.988;7.646;2023-02-23T09:58:41;84.47;;;54.23;;
13263;SDS011;6700;51.988;7.646;2023-02-23T10:03:58;86.63;;;51.00;;
13263;SDS011;6700;51.988;7.646;2023-02-23T10:06:28;83.80;;;50.97;;
13263;SDS011;6700;51.988;7.646;2023-02-23T10:09:09;89.67;;;53.20;;
13263;SDS011;6700;51.988;7.646;2023-02-23T10:11:52;86.63;;;51.27;;
13263;SDS011;6700;51.988;7.646;2023-02-23T10:14:34;87.63;;;55.60;;
13263;SDS011;6700;51.988;7.646;2023-02-23T10:22:04;86.83;;;52.20;;
13263;SDS011;6700;51.988;7.646;2023-02-23T10:24:34;86.07;;;49.50;;
13263;SDS011;6700;51.988;7.646;2023-02-23T10:27:05;83.70;;;50.60;;
13263;SDS011;6700;51.988;7.646;2023-02-23T10:29:37;79.50;;;49.57;;
13263;SDS011;6700;51.988;7.646;2023-02-23T10:32:11;76.97;;;45.40;;
13263;SDS011;6700;51.988;7.646;2023-02-23T10:34:42;79.53;;;45.63;;
13263;SDS011;6700;51.988;7.646;2023-02-23T10:37:11;74.13;;;45.27;;
13263;SDS011;6700;51.988;7.646;2023-02-23T10:39:38;76.10;;;46.17;;
13263;SDS011;6700;51.988;7.646;2023-02-23T10:42:06;73.60;;;42.03;;
13263;SDS011;6700;51.988;7.646;2023-02-23T10:44:38;74.50;;;45.57;;
13263;SDS011;6700;51.988;7.646;2023-02-23T10:47:10;73.73;;;41.33;;
13263;SDS011;6700;51.988;7.646;2023-02-23T10:52:11;65.70;;;36.27;;
13263;SDS011;6700;51.988;7.646;2023-02-23T10:54:41;62.80;;;36.40;;
13263;SDS011;6700;51.988;7.646;2023-02-23T10:57:11;68.93;;;40.07;;
13263;SDS011;6700;51.988;7.646;2023-02-23T10:59:54;58.00;;;33.10;;
13263;SDS011;6700;51.988;7.646;2023-02-23T11:02:24;64.67;;;32.80;;
13263;SDS011;6700;51.988;7.646;2023-02-23T11:04:56;66.80;;;34.40;;
13263;SDS011;6700;51.988;7.646;2023-02-23T11:07:27;60.93;;;33.63;;
13263;SDS011;6700;51.988;7.646;2023-02-23T11:09:55;58.87;;;31.27;;
13263;SDS011;6700;51.988;7.646;2023-02-23T11:12:28;55.33;;;29.50;;
13263;SDS011;6700;51.988;7.646;2023-02-23T11:15:19;49.50;;;26.23;;
13263;SDS011;6700;51.988;7.646;2023-02-23T11:17:53;51.43;;;27.00;;
13263;SDS011;6700;51.988;7.646;2023-02-23T11:20:32;53.10;;;26.73;;
13263;SDS011;6700;51.988;7.646;2023-02-23T11:25:52;46.60;;;24.83;;
13263;SDS011;6700;51.988;7.646;2023-02-23T11:28:28;52.03;;;25.70;;
13263;SDS011;6700;51.988;7.646;2023-02-23T11:30:58;47.47;;;24.33;;
13263;SDS011;6700;51.988;7.646;2023-02-23T11:33:29;49.60;;;25.83;;
13263;SDS011;6700;51.988;7.646;2023-02-23T11:36:15;45.97;;;26.00;;
13263;SDS011;6700;51.988;7.646;2023-02-23T11:38:43;42.33;;;24.93;;
13263;SDS011;6700;51.988;7.646;2023-02-23T11:41:18;51.07;;;25.73;;
13263;SDS011;6700;51.988;7.646;2023-02-23T11:43:47;41.63;;;26.03;;
13263;SDS011;6700;51.988;7.646;2023-02-23T11:46:15;40.97;;;22.87;;
13263;SDS011;6700;51.988;7.646;2023-02-23T11:48:58;42.70;;;24.77;;
13263;SDS011;6700;51.988;7.646;2023-02-23T11:51:30;38.17;;;20.80;;
13263;SDS011;6700;51.988;7.646;2023-02-23T11:53:58;38.60;;;23.07;;
13263;SDS011;6700;51.988;7.646;2023-02-23T11:56:26;35.20;;;20.27;;
13263;SDS011;6700;51.988;7.646;2023-02-23T12:01:34;36.07;;;22.43;;
13263;SDS011;6700;51.988;7.646;2023-02-23T12:04:02;38.30;;;21.07;;
13263;SDS011;6700;51.988;7.646;2023-02-23T12:06:33;39.53;;;21.93;;
13263;SDS011;6700;51.988;7.646;2023-02-23T12:11:36;44.60;;;23.20;;
13263;SDS011;6700;51.988;7.646;2023-02-23T12:16:37;45.53;;;26.63;;
13263;SDS011;6700;51.988;7.646;2023-02-23T12:31:56;40.37;;;22.53;;
13263;SDS011;6700;51.988;7.646;2023-02-23T12:34:38;36.57;;;21.37;;
13263;SDS011;6700;51.988;7.646;2023-02-23T12:39:58;31.17;;;18.70;;
13263;SDS011;6700;51.988;7.646;2023-02-23T12:42:35;32.60;;;18.80;;
13263;SDS011;6700;51.988;7.646;2023-02-23T12:45:08;36.93;;;19.10;;
13263;SDS011;6700;51.988;7.646;2023-02-23T12:47:41;32.67;;;18.40;;
13263;SDS011;6700;51.988;7.646;2023-02-23T12:50:10;32.10;;;16.90;;
13263;SDS011;6700;51.988;7.646;2023-02-23T12:52:41;32.43;;;19.20;;
13263;SDS011;6700;51.988;7.646;2023-02-23T12:55:09;29.13;;;17.67;;
13263;SDS011;6700;51.988;7.646;2023-02-23T12:57:44;30.07;;;18.17;;
13263;SDS011;6700;51.988;7.646;2023-02-23T13:05:54;29.47;;;18.37;;
13263;SDS011;6700;51.988;7.646;2023-02-23T13:08:38;29.67;;;18.33;;
13263;SDS011;6700;51.988;7.646;2023-02-23T13:13:57;33.70;;;20.97;;
13263;SDS011;6700;51.988;7.646;2023-02-23T13:16:39;30.87;;;20.67;;
13263;SDS011;6700;51.988;7.646;2023-02-23T13:19:14;32.10;;;20.87;;
13263;SDS011;6700;51.988;7.646;2023-02-23T13:24:35;30.73;;;17.97;;
13263;SDS011;6700;51.988;7.646;2023-02-23T13:32:00;30.20;;;18.53;;
13263;SDS011;6700;51.988;7.646;2023-02-23T13:34:35;33.83;;;20.03;;
13263;SDS011;6700;51.988;7.646;2023-02-23T13:37:05;30.33;;;18.53;;
13263;SDS011;6700;51.988;7.646;2023-02-23T13:50:39;34.13;;;20.00;;
13263;SDS011;6700;51.988;7.646;2023-02-23T13:52:46;33.67;;;20.63;;
13263;SDS011;6700;51.988;7.646;2023-02-23T13:58:09;36.50;;;21.30;;
13263;SDS011;6700;51.988;7.646;2023-02-23T14:00:38;41.27;;;21.73;;
13263;SDS011;6700;51.988;7.646;2023-02-23T14:03:06;35.70;;;21.40;;
13263;SDS011;6700;51.988;7.646;2023-02-23T14:05:41;37.97;;;21.00;;
13263;SDS011;6700;51.988;7.646;2023-02-23T14:08:17;35.83;;;20.63;;
13263;SDS011;6700;51.988;7.646;2023-02-23T14:10:46;40.00;;;21.73;;
13263;SDS011;6700;51.988;7.646;2023-02-23T14:15:45;39.70;;;20.53;;
13263;SDS011;6700;51.988;7.646;2023-02-23T14:20:54;39.27;;;21.03;;
13263;SDS011;6700;51.988;7.646;2023-02-23T14:28:35;43.93;;;21.97;;
13263;SDS011;6700;51.988;7.646;2023-02-23T14:41:24;36.83;;;21.73;;
13263;SDS011;6700;51.988;7.646;2023-02-23T14:43:53;37.87;;;20.10;;
13263;SDS011;6700;51.988;7.646;2023-02-23T14:46:22;43.37;;;22.30;;
13263;SDS011;6700;51.988;7.646;2023-02-23T14:49:09;39.83;;;21.47;;
13263;SDS011;6700;51.988;7.646;2023-02-23T14:51:40;37.97;;;20.03;;
13263;SDS011;6700;51.988;7.646;2023-02-23T14:54:20;46.43;;;22.03;;
13263;SDS011;6700;51.988;7.646;2023-02-23T14:56:49;46.20;;;21.60;;
13263;SDS011;6700;51.988;7.646;2023-02-23T14:59:20;42.50;;;20.63;;
13263;SDS011;6700;51.988;7.646;2023-02-23T15:01:52;46.37;;;22.03;;
13263;SDS011;6700;51.988;7.646;2023-02-23T15:04:23;46.77;;;23.37;;
13263;SDS011;6700;51.988;7.646;2023-02-23T15:06:53;43.00;;;21.50;;
13263;SDS011;6700;51.988;7.646;2023-02-23T15:09:24;40.87;;;22.03;;
13263;SDS011;6700;51.988;7.646;2023-02-23T15:11:56;44.77;;;20.33;;
13263;SDS011;6700;51.988;7.646;2023-02-23T15:14:24;42.87;;;23.13;;
13263;SDS011;6700;51.988;7.646;2023-02-23T15:16:54;44.27;;;22.40;;
13263;SDS011;6700;51.988;7.646;2023-02-23T15:19:27;43.50;;;20.40;;
13263;SDS011;6700;51.988;7.646;2023-02-23T15:21:57;44.13;;;22.27;;
13263;SDS011;6700;51.988;7.646;2023-02-23T15:24:29;46.97;;;21.57;;
13263;SDS011;6700;51.988;7.646;2023-02-23T15:26:56;47.27;;;21.47;;
13263;SDS011;6700;51.988;7.646;2023-02-23T15:29:25;38.73;;;21.43;;
13263;SDS011;6700;51.988;7.646;2023-02-23T15:31:56;42.07;;;20.90;;
13263;SDS011;6700;51.988;7.646;2023-02-23T15:34:40;40.23;;;21.13;;
13263;SDS011;6700;51.988;7.646;2023-02-23T15:37:27;36.23;;;20.13;;
13263;SDS011;6700;51.988;7.646;2023-02-23T15:39:59;45.57;;;19.57;;
13263;SDS011;6700;51.988;7.646;2023-02-23T15:42:38;43.40;;;20.57;;
13263;SDS011;6700;51.988;7.646;2023-02-23T15:45:14;42.87;;;19.17;;
13263;SDS011;6700;51.988;7.646;2023-02-23T15:47:42;40.63;;;21.27;;
13263;SDS011;6700;51.988;7.646;2023-02-23T15:50:14;36.53;;;20.00;;
13263;SDS011;6700;51.988;7.646;2023-02-23T15:53:00;36.27;;;19.70;;
13263;SDS011;6700;51.988;7.646;2023-02-23T15:55:32;39.90;;;23.50;;
13263;SDS011;6700;51.988;7.646;2023-02-23T15:58:08;37.63;;;21.87;;
13263;SDS011;6700;51.988;7.646;2023-02-23T16:00:40;36.57;;;21.23;;
13263;SDS011;6700;51.988;7.646;2023-02-23T16:03:18;39.83;;;22.30;;
13263;SDS011;6700;51.988;7.646;2023-02-23T16:05:54;34.27;;;18.37;;
13263;SDS011;6700;51.988;7.646;2023-02-23T16:08:22;37.43;;;20.27;;
13263;SDS011;6700;51.988;7.646;2023-02-23T16:10:51;34.03;;;18.67;;
13263;SDS011;6700;51.988;7.646;2023-02-23T16:13:22;34.67;;;18.10;;
13263;SDS011;6700;51.988;7.646;2023-02-23T16:15:52;35.97;;;18.47;;
13263;SDS011;6700;51.988;7.646;2023-02-23T16:18:32;35.87;;;18.93;;
13263;SDS011;6700;51.988;7.646;2023-02-23T16:21:00;42.07;;;23.67;;
13263;SDS011;6700;51.988;7.646;2023-02-23T16:23:29;40.10;;;23.40;;
13263;SDS011;6700;51.988;7.646;2023-02-23T16:28:39;35.20;;;18.77;;
13263;SDS011;6700;51.988;7.646;2023-02-23T16:31:07;34.97;;;19.27;;
13263;SDS011;6700;51.988;7.646;2023-02-23T16:33:51;35.93;;;17.97;;
13263;SDS011;6700;51.988;7.646;2023-02-23T16:36:20;32.23;;;17.90;;
13263;SDS011;6700;51.988;7.646;2023-02-23T16:38:56;35.57;;;18.93;;
13263;SDS011;6700;51.988;7.646;2023-02-23T16:41:24;32.13;;;17.67;;
13263;SDS011;6700;51.988;7.646;2023-02-23T16:43:52;31.13;;;18.57;;
13263;SDS011;6700;51.988;7.646;2023-02-23T16:46:21;39.07;;;21.13;;
13263;SDS011;6700;51.988;7.646;2023-02-23T16:48:49;55.30;;;33.07;;
13263;SDS011;6700;51.988;7.646;2023-02-23T16:51:18;46.53;;;29.07;;
13263;SDS011;6700;51.988;7.646;2023-02-23T16:53:46;47.17;;;26.00;;
13263;SDS011;6700;51.988;7.646;2023-02-23T16:56:13;41.37;;;23.00;;
13263;SDS011;6700;51.988;7.646;2023-02-23T16:58:43;35.13;;;20.87;;
13263;SDS011;6700;51.988;7.646;2023-02-23T17:01:11;33.97;;;16.93;;
13263;SDS011;6700;51.988;7.646;2023-02-23T17:03:39;31.80;;;17.13;;
13263;SDS011;6700;51.988;7.646;2023-02-23T17:06:18;34.23;;;17.53;;
13263;SDS011;6700;51.988;7.646;2023-02-23T17:08:46;30.77;;;17.20;;